Terminal Aerodrome Forecast
Issued by NWS

Home | Current Version | Previous Version | Text Only | Print | Product List | Glossary On
Versions: 1 2 3 4 5 6 7 8 9 10 11 12 13 14 15
000
FTUS41 KBTV 280959 AAB
TAFMSS
TAF AMD
KMSS 280959Z 2810/2906 VRB03KT P6SM SKC
     FM281200 23004KT P6SM SKC
     FM281400 24008KT P6SM FEW035
     FM290000 21004KT P6SM SKC=

USA.gov is the U.S. government's official web portal to all federal, state and local government web resources and services.